createdAt,value
2017-12-28T00:01:48.980Z,18.75
2017-12-28T00:04:24.167Z,13.20
2017-12-28T00:06:58.358Z,14.40
2017-12-28T00:09:33.445Z,14.73
2017-12-28T00:12:06.936Z,13.10
2017-12-28T00:14:41.678Z,16.85
2017-12-28T00:17:16.841Z,17.00
2017-12-28T00:19:51.319Z,20.33
2017-12-28T00:22:26.969Z,17.27
2017-12-28T00:25:02.117Z,16.80
2017-12-28T00:27:40.419Z,16.95
2017-12-28T00:30:12.621Z,16.45
2017-12-28T00:32:44.695Z,18.70
2017-12-28T00:35:17.923Z,21.95
2017-12-28T00:37:49.938Z,21.10
2017-12-28T00:40:22.656Z,17.70
2017-12-28T00:42:54.686Z,16.77
2017-12-28T00:45:28.055Z,16.23
2017-12-28T00:48:01.299Z,16.20
2017-12-28T00:50:33.715Z,16.70
2017-12-28T00:53:06.331Z,18.62
2017-12-28T00:55:38.390Z,17.77
2017-12-28T00:58:10.046Z,16.83
2017-12-28T01:00:42.109Z,18.00
2017-12-28T01:03:16.556Z,16.02
2017-12-28T01:05:49.564Z,15.77
2017-12-28T01:08:26.457Z,24.67
2017-12-28T01:10:59.108Z,13.60
2017-12-28T01:13:30.674Z,12.98
2017-12-28T01:16:06.580Z,14.80
2017-12-28T01:18:42.650Z,15.75
2017-12-28T01:21:17.238Z,17.50
2017-12-28T01:23:50.917Z,14.20
2017-12-28T01:26:37.160Z,14.77
2017-12-28T01:29:11.500Z,16.50
2017-12-28T01:31:45.530Z,17.25
2017-12-28T01:34:20.046Z,17.37
2017-12-28T01:36:57.534Z,18.33
2017-12-28T01:39:31.432Z,19.20
2017-12-28T01:42:10.101Z,49.10
2017-12-28T01:44:52.313Z,37.28
2017-12-28T01:47:32.381Z,36.22
2017-12-28T01:50:05.090Z,25.77
2017-12-28T01:52:39.641Z,36.20
2017-12-28T01:55:13.982Z,38.50
2017-12-28T01:57:59.020Z,33.83
2017-12-28T02:00:35.101Z,28.40
2017-12-28T02:03:16.555Z,34.22
2017-12-28T02:05:56.553Z,22.98
2017-12-28T02:08:33.351Z,23.50
2017-12-28T02:13:49.284Z,21.98
2017-12-28T02:16:24.946Z,25.88
2017-12-28T02:24:17.496Z,33.45
2017-12-28T02:26:52.045Z,27.33
2017-12-28T02:29:36.125Z,26.67
2017-12-28T02:32:09.452Z,44.13
2017-12-28T02:34:44.388Z,35.60
2017-12-28T02:37:19.048Z,26.70
2017-12-28T02:39:52.608Z,22.02
2017-12-28T02:42:30.900Z,20.70
2017-12-28T02:45:08.997Z,21.30
2017-12-28T02:47:42.884Z,19.50
2017-12-28T02:50:18.120Z,19.17
2017-12-28T02:52:50.375Z,21.50
2017-12-28T02:55:27.726Z,22.15
2017-12-28T02:58:03.662Z,20.35
2017-12-28T03:00:37.703Z,24.08
2017-12-28T03:03:13.414Z,20.62
2017-12-28T03:05:51.121Z,19.80
2017-12-28T03:08:24.431Z,19.37
2017-12-28T03:10:58.817Z,19.27
2017-12-28T03:13:32.956Z,23.42
2017-12-28T03:16:10.741Z,24.10
2017-12-28T03:18:49.356Z,23.30
2017-12-28T03:21:26.456Z,22.02
2017-12-28T03:24:03.306Z,21.55
2017-12-28T03:26:42.577Z,21.58
2017-12-28T03:29:19.417Z,21.65
2017-12-28T03:31:54.075Z,20.42
2017-12-28T03:34:34.163Z,21.87
2017-12-28T03:37:06.260Z,20.35
2017-12-28T03:39:43.110Z,23.83
2017-12-28T03:42:19.423Z,21.30
2017-12-28T03:44:54.996Z,22.10
2017-12-28T03:47:29.603Z,23.55
2017-12-28T03:50:05.877Z,24.02
2017-12-28T03:52:39.565Z,24.25
2017-12-28T03:55:17.041Z,24.35
2017-12-28T03:57:50.117Z,25.65
2017-12-28T04:00:23.566Z,22.30
2017-12-28T04:03:01.037Z,20.52
2017-12-28T04:05:37.616Z,21.05
2017-12-28T04:08:12.392Z,21.20
2017-12-28T04:10:47.477Z,19.85
2017-12-28T04:13:23.701Z,26.33
2017-12-28T04:16:00.840Z,21.73
2017-12-28T04:18:37.069Z,26.58
2017-12-28T04:21:16.500Z,24.23
2017-12-28T04:23:52.652Z,23.33
2017-12-28T04:26:26.080Z,24.67
2017-12-28T04:29:05.993Z,36.70
2017-12-28T04:31:45.602Z,47.20
2017-12-28T04:34:21.044Z,36.08
2017-12-28T04:36:57.816Z,37.00
2017-12-28T04:39:34.993Z,28.62
2017-12-28T04:42:18.532Z,27.83
2017-12-28T04:44:54.018Z,28.02
2017-12-28T04:47:30.119Z,29.52
2017-12-28T04:50:07.773Z,26.95
2017-12-28T04:52:43.095Z,28.17
2017-12-28T04:55:18.518Z,27.10
2017-12-28T04:57:52.202Z,26.37
2017-12-28T05:00:36.040Z,24.25
2017-12-28T05:03:13.213Z,29.25
2017-12-28T05:05:48.016Z,23.27
2017-12-28T05:08:23.205Z,23.25
2017-12-28T05:10:57.734Z,22.92
2017-12-28T05:13:36.250Z,23.23
2017-12-28T05:16:11.130Z,23.70
2017-12-28T05:18:44.297Z,20.98
2017-12-28T05:21:20.223Z,20.05
2017-12-28T05:26:39.742Z,22.85
2017-12-28T05:29:14.829Z,22.70
2017-12-28T05:31:50.906Z,23.10
2017-12-28T05:34:24.920Z,21.85
2017-12-28T05:36:58.616Z,22.05
2017-12-28T05:39:33.801Z,21.87
2017-12-28T05:42:11.833Z,20.80
2017-12-28T05:44:45.526Z,21.42
2017-12-28T05:47:19.752Z,25.48
2017-12-28T05:49:56.240Z,31.00
2017-12-28T05:55:15.732Z,23.08
2017-12-28T05:57:52.128Z,22.58
2017-12-28T06:00:28.306Z,22.48
2017-12-28T06:03:04.629Z,19.92
2017-12-28T06:05:42.244Z,21.60
2017-12-28T06:08:16.321Z,21.20
2017-12-28T06:10:55.325Z,23.20
2017-12-28T06:13:34.734Z,21.30
2017-12-28T06:16:09.126Z,20.45
2017-12-28T06:18:44.500Z,21.08
2017-12-28T06:21:19.128Z,18.20
2017-12-28T06:23:53.301Z,20.55
2017-12-28T06:26:27.593Z,20.10
2017-12-28T06:29:04.588Z,26.02
2017-12-28T06:31:52.885Z,24.37
2017-12-28T06:34:26.273Z,26.37
2017-12-28T06:37:06.360Z,27.42
2017-12-28T06:39:42.285Z,31.23
2017-12-28T06:42:15.008Z,28.38
2017-12-28T06:44:51.541Z,27.85
2017-12-28T06:47:26.085Z,33.25
2017-12-28T06:50:03.914Z,27.23
2017-12-28T06:52:47.154Z,28.83
2017-12-28T06:55:24.716Z,28.05
2017-12-28T06:58:00.661Z,28.12
2017-12-28T07:00:35.015Z,25.30
2017-12-28T07:03:10.809Z,24.37
2017-12-28T07:05:46.960Z,23.20
2017-12-28T07:08:21.834Z,23.00
2017-12-28T07:10:59.957Z,25.42
2017-12-28T07:13:36.207Z,23.12
2017-12-28T07:16:13.316Z,21.80
2017-12-28T07:18:48.158Z,21.52
2017-12-28T07:21:29.506Z,21.37
2017-12-28T07:24:13.041Z,21.48
2017-12-28T07:26:52.394Z,19.37
2017-12-28T07:29:29.424Z,22.58
2017-12-28T07:32:03.871Z,19.42
2017-12-28T07:34:39.609Z,19.45
2017-12-28T07:37:14.641Z,22.20
2017-12-28T07:39:51.439Z,23.67
2017-12-28T07:42:24.552Z,21.65
2017-12-28T07:44:58.940Z,21.65
2017-12-28T07:47:34.556Z,21.60
2017-12-28T07:50:09.846Z,21.73
2017-12-28T07:52:48.872Z,22.67
2017-12-28T07:55:25.210Z,23.98
2017-12-28T07:58:01.304Z,25.77
2017-12-28T08:00:37.365Z,21.35
2017-12-28T08:03:13.000Z,23.05
2017-12-28T08:05:46.393Z,24.10
2017-12-28T08:08:22.862Z,25.15
2017-12-28T08:10:56.910Z,26.55
2017-12-28T08:13:35.410Z,23.65
2017-12-28T08:16:10.413Z,23.98
2017-12-28T08:18:45.436Z,25.20
2017-12-28T08:21:22.273Z,21.92
2017-12-28T08:23:56.971Z,20.85
2017-12-28T08:26:32.920Z,20.10
2017-12-28T08:29:08.872Z,22.05
2017-12-28T08:31:45.459Z,21.27
2017-12-28T08:34:24.197Z,21.58
2017-12-28T08:36:59.037Z,21.00
2017-12-28T08:39:32.617Z,19.48
2017-12-28T08:42:08.426Z,22.45
2017-12-28T08:44:43.446Z,22.87
2017-12-28T08:47:18.393Z,20.27
2017-12-28T08:49:52.253Z,25.02
2017-12-28T08:52:27.077Z,24.83
2017-12-28T08:55:01.476Z,27.60
2017-12-28T08:57:35.778Z,28.17
2017-12-28T09:00:11.687Z,31.50
2017-12-28T09:02:48.652Z,27.60
2017-12-28T09:05:27.827Z,25.48
2017-12-28T09:08:02.321Z,29.27
2017-12-28T09:10:38.540Z,32.38
2017-12-28T09:13:16.013Z,22.83
2017-12-28T09:15:53.493Z,27.42
2017-12-28T09:18:32.088Z,26.05
2017-12-28T09:21:05.734Z,31.42
2017-12-28T09:23:42.399Z,30.33
2017-12-28T09:26:17.328Z,25.75
2017-12-28T09:28:53.350Z,24.77
2017-12-28T09:31:28.500Z,28.25
2017-12-28T09:34:01.642Z,31.45
2017-12-28T09:39:16.212Z,28.55
2017-12-28T09:42:02.597Z,30.95
2017-12-28T09:44:38.999Z,30.95
2017-12-28T09:47:14.871Z,31.27
2017-12-28T09:49:48.487Z,28.65
2017-12-28T09:52:22.823Z,27.13
2017-12-28T09:55:04.404Z,25.05
2017-12-28T09:57:39.371Z,25.98
2017-12-28T10:00:19.750Z,25.27
2017-12-28T10:02:53.637Z,22.73
2017-12-28T10:05:32.172Z,23.58
2017-12-28T10:08:07.165Z,25.33
2017-12-28T10:10:42.851Z,22.65
2017-12-28T10:13:18.447Z,23.17
2017-12-28T10:15:56.570Z,22.75
2017-12-28T10:18:30.875Z,22.23
2017-12-28T10:21:05.295Z,25.20
2017-12-28T10:23:44.202Z,27.35
2017-12-28T10:26:20.801Z,32.97
2017-12-28T10:28:52.774Z,29.58
2017-12-28T10:31:26.940Z,26.02
2017-12-28T10:34:00.074Z,26.83
2017-12-28T10:36:35.794Z,27.23
2017-12-28T10:39:09.449Z,25.20
2017-12-28T10:41:41.640Z,26.67
2017-12-28T10:44:18.508Z,23.52
2017-12-28T10:46:54.094Z,22.45
2017-12-28T10:49:27.847Z,21.73
2017-12-28T10:52:02.164Z,22.85
2017-12-28T10:54:40.368Z,25.02
2017-12-28T10:57:14.601Z,24.95
2017-12-28T10:59:51.140Z,25.60
2017-12-28T11:02:27.834Z,26.02
2017-12-28T11:05:03.952Z,31.12
2017-12-28T11:07:38.503Z,39.72
2017-12-28T11:10:19.117Z,45.42
2017-12-28T11:12:53.516Z,34.55
2017-12-28T11:15:29.532Z,34.47
2017-12-28T11:18:05.228Z,36.80
2017-12-28T11:20:43.425Z,37.22
2017-12-28T11:23:23.037Z,33.17
2017-12-28T11:25:57.363Z,35.00
2017-12-28T11:28:33.476Z,31.10
2017-12-28T11:31:11.215Z,31.17
2017-12-28T11:33:46.230Z,29.30
2017-12-28T11:36:28.875Z,27.23
2017-12-28T11:39:04.886Z,30.55
2017-12-28T11:41:40.513Z,28.83
2017-12-28T11:44:20.351Z,27.98
2017-12-28T11:46:57.336Z,28.25
2017-12-28T11:49:37.579Z,32.50
2017-12-28T11:52:10.781Z,31.65
2017-12-28T11:54:45.819Z,30.12
2017-12-28T11:57:26.493Z,30.73
2017-12-28T12:00:09.213Z,35.85
2017-12-28T12:02:46.306Z,24.83
2017-12-28T12:05:26.556Z,27.40
2017-12-28T12:08:06.650Z,29.12
2017-12-28T12:10:48.353Z,34.45
2017-12-28T12:13:23.425Z,28.60
2017-12-28T12:15:59.638Z,38.17
2017-12-28T12:18:39.127Z,36.60
2017-12-28T12:21:14.823Z,35.88
2017-12-28T12:23:50.611Z,30.85
2017-12-28T12:26:25.776Z,31.23
2017-12-28T12:29:09.640Z,33.33
2017-12-28T12:31:46.243Z,32.08
2017-12-28T12:34:21.325Z,29.05
2017-12-28T12:36:58.726Z,28.75
2017-12-28T12:39:34.554Z,26.73
2017-12-28T12:42:10.099Z,26.50
2017-12-28T12:44:44.699Z,29.98
2017-12-28T12:47:27.784Z,25.75
2017-12-28T12:50:03.020Z,25.15
2017-12-28T12:52:37.591Z,22.15
2017-12-28T12:55:13.829Z,20.75
2017-12-28T12:57:48.724Z,20.75
2017-12-28T13:00:23.124Z,22.25
2017-12-28T13:02:59.747Z,26.48
2017-12-28T13:05:38.483Z,26.65
2017-12-28T13:08:13.429Z,27.48
2017-12-28T13:10:48.428Z,30.25
2017-12-28T13:13:24.561Z,26.80
2017-12-28T13:16:01.339Z,25.45
2017-12-28T13:18:36.907Z,24.42
2017-12-28T13:21:15.051Z,23.87
2017-12-28T13:23:52.327Z,23.92
2017-12-28T13:26:30.216Z,21.50
2017-12-28T13:29:06.766Z,20.55
2017-12-28T13:31:42.413Z,22.00
2017-12-28T13:34:17.563Z,21.25
2017-12-28T13:36:54.130Z,21.73
2017-12-28T13:39:29.084Z,23.15
2017-12-28T13:42:06.090Z,24.10
2017-12-28T13:44:41.125Z,23.00
2017-12-28T13:47:24.738Z,24.33
2017-12-28T13:50:07.813Z,23.38
2017-12-28T13:52:41.753Z,22.65
2017-12-28T13:55:16.487Z,19.55
2017-12-28T13:57:52.874Z,20.85
2017-12-28T14:00:27.930Z,23.45
2017-12-28T14:03:06.981Z,24.73
2017-12-28T14:05:49.119Z,24.40
2017-12-28T14:08:26.029Z,22.62
2017-12-28T14:11:00.916Z,21.37
2017-12-28T14:13:41.338Z,22.60
2017-12-28T14:16:15.790Z,21.23
2017-12-28T14:18:49.136Z,20.52
2017-12-28T14:21:30.753Z,20.88
2017-12-28T14:24:04.963Z,20.75
2017-12-28T14:26:41.549Z,23.80
2017-12-28T14:29:24.618Z,23.52
2017-12-28T14:32:06.556Z,22.05
2017-12-28T14:34:40.517Z,22.37
2017-12-28T14:37:15.492Z,20.35
2017-12-28T14:39:50.897Z,22.65
2017-12-28T14:42:24.574Z,20.95
2017-12-28T14:44:59.231Z,19.45
2017-12-28T14:47:34.504Z,21.45
2017-12-28T14:50:10.470Z,20.65
2017-12-28T14:52:45.478Z,22.52
2017-12-28T14:55:19.176Z,19.48
2017-12-28T14:57:53.152Z,20.83
2017-12-28T15:00:31.490Z,25.25
2017-12-28T15:03:06.356Z,22.65
2017-12-28T15:05:41.762Z,23.27
2017-12-28T15:08:18.216Z,26.52
2017-12-28T15:10:51.465Z,20.17
2017-12-28T15:13:27.533Z,26.00
2017-12-28T15:16:01.360Z,22.02
2017-12-28T15:18:36.084Z,23.85
2017-12-28T15:21:11.155Z,25.67
2017-12-28T15:23:47.836Z,24.90
2017-12-28T15:26:24.010Z,26.27
2017-12-28T15:28:59.944Z,24.25
2017-12-28T15:31:34.895Z,26.42
2017-12-28T15:34:10.652Z,28.23
2017-12-28T15:36:47.740Z,25.45
2017-12-28T15:39:23.377Z,25.48
2017-12-28T15:42:02.831Z,25.65
2017-12-28T15:44:37.597Z,24.10
2017-12-28T15:47:12.395Z,28.10
2017-12-28T15:50:02.620Z,23.73
2017-12-28T15:52:38.394Z,28.62
2017-12-28T15:55:15.823Z,27.25
2017-12-28T15:57:51.765Z,27.20
2017-12-28T16:00:25.796Z,26.37
2017-12-28T16:03:01.013Z,27.40
2017-12-28T16:05:36.795Z,27.87
2017-12-28T16:08:11.759Z,23.65
2017-12-28T16:10:46.643Z,21.42
2017-12-28T16:13:20.780Z,22.15
2017-12-28T16:15:57.598Z,22.90
2017-12-28T16:18:32.400Z,20.98
2017-12-28T16:21:06.011Z,23.60
2017-12-28T16:23:41.706Z,26.15
2017-12-28T16:26:18.645Z,23.27
2017-12-28T16:28:55.518Z,24.48
2017-12-28T16:31:34.128Z,25.30
2017-12-28T16:34:09.122Z,24.00
2017-12-28T16:36:44.042Z,25.73
2017-12-28T16:39:26.712Z,22.85
2017-12-28T16:42:06.412Z,22.15
2017-12-28T16:44:40.205Z,24.27
2017-12-28T16:47:14.931Z,22.60
2017-12-28T16:49:49.083Z,24.37
2017-12-28T16:52:23.029Z,24.98
2017-12-28T16:54:58.038Z,23.35
2017-12-28T16:57:32.612Z,24.37
2017-12-28T17:00:08.399Z,24.12
2017-12-28T17:02:51.714Z,26.50
2017-12-28T17:05:35.760Z,21.98
2017-12-28T17:08:23.094Z,26.25
2017-12-28T17:11:01.712Z,23.67
2017-12-28T17:13:35.194Z,24.20
2017-12-28T17:16:09.661Z,27.23
2017-12-28T17:18:43.837Z,26.42
2017-12-28T17:21:18.357Z,25.05
2017-12-28T17:23:52.809Z,25.48
2017-12-28T17:26:27.044Z,21.42
2017-12-28T17:29:02.165Z,24.40
2017-12-28T17:31:37.924Z,24.17
2017-12-28T17:34:15.071Z,24.37
2017-12-28T17:36:49.903Z,24.37
2017-12-28T17:39:26.094Z,27.62
2017-12-28T17:42:02.464Z,26.10
2017-12-28T17:44:39.072Z,25.12
2017-12-28T17:47:14.133Z,24.10
2017-12-28T17:49:50.650Z,22.37
2017-12-28T17:52:26.487Z,21.58
2017-12-28T17:55:00.308Z,21.70
2017-12-28T17:57:33.307Z,22.65
2017-12-28T18:00:06.459Z,23.00
2017-12-28T18:02:45.264Z,22.77
2017-12-28T18:05:19.074Z,21.75
2017-12-28T18:07:56.706Z,24.80
2017-12-28T18:13:11.052Z,22.30
2017-12-28T18:15:44.224Z,22.50
2017-12-28T18:18:20.514Z,22.00
2017-12-28T18:20:55.175Z,24.80
2017-12-28T18:23:32.961Z,22.77
2017-12-28T18:26:09.418Z,24.45
2017-12-28T18:28:44.785Z,20.88
2017-12-28T18:31:18.961Z,22.58
2017-12-28T18:33:55.532Z,24.58
2017-12-28T18:36:32.586Z,29.73
2017-12-28T18:39:05.347Z,27.52
2017-12-28T18:41:39.063Z,25.55
2017-12-28T18:44:15.161Z,25.75
2017-12-28T18:46:49.368Z,24.48
2017-12-28T18:49:23.824Z,22.98
2017-12-28T18:51:57.369Z,24.67
2017-12-28T18:54:32.191Z,25.02
2017-12-28T18:57:08.084Z,25.65
2017-12-28T18:59:44.637Z,25.55
2017-12-28T19:02:23.571Z,24.35
2017-12-28T19:04:58.410Z,22.50
2017-12-28T19:07:32.690Z,23.02
2017-12-28T19:10:05.599Z,21.15
2017-12-28T19:12:41.567Z,21.75
2017-12-28T19:15:17.533Z,22.48
2017-12-28T19:17:50.940Z,20.75
2017-12-28T19:20:30.997Z,23.65
2017-12-28T19:23:04.775Z,22.13
2017-12-28T19:25:38.512Z,24.42
2017-12-28T19:28:13.775Z,22.80
2017-12-28T19:30:49.742Z,20.98
2017-12-28T19:33:25.081Z,22.87
2017-12-28T19:35:59.795Z,21.80
2017-12-28T19:38:36.185Z,22.67
2017-12-28T19:41:11.830Z,21.37
2017-12-28T19:43:46.243Z,23.65
2017-12-28T19:46:19.833Z,25.27
2017-12-28T19:48:54.709Z,22.42
2017-12-28T19:51:30.620Z,24.12
2017-12-28T19:54:15.407Z,24.70
2017-12-28T19:56:48.777Z,25.83
2017-12-28T19:59:22.559Z,24.85
2017-12-28T20:01:57.841Z,22.75
2017-12-28T20:04:34.927Z,23.45
2017-12-28T20:07:08.785Z,23.42
2017-12-28T20:09:45.684Z,22.70
2017-12-28T20:12:20.870Z,25.75
2017-12-28T20:14:56.072Z,23.75
2017-12-28T20:17:34.448Z,21.23
2017-12-28T20:20:09.379Z,23.67
2017-12-28T20:22:56.547Z,23.80
2017-12-28T20:25:32.526Z,25.12
2017-12-28T20:28:08.951Z,22.90
2017-12-28T20:30:43.916Z,22.37
2017-12-28T20:33:17.985Z,23.30
2017-12-28T20:36:00.901Z,23.70
2017-12-28T20:38:40.755Z,23.12
2017-12-28T20:41:16.505Z,22.77
2017-12-28T20:43:51.805Z,24.60
2017-12-28T20:46:27.649Z,25.33
2017-12-28T20:49:01.518Z,23.65
2017-12-28T20:51:36.697Z,25.58
2017-12-28T20:54:11.632Z,24.85
2017-12-28T20:56:52.461Z,22.48
2017-12-28T20:59:28.273Z,24.10
2017-12-28T21:02:04.847Z,24.25
2017-12-28T21:04:43.136Z,25.52
2017-12-28T21:07:19.457Z,26.08
2017-12-28T21:10:01.637Z,25.08
2017-12-28T21:12:39.850Z,24.10
2017-12-28T21:15:24.535Z,23.10
2017-12-28T21:18:03.019Z,20.67
2017-12-28T21:20:37.855Z,21.70
2017-12-28T21:23:22.829Z,25.52
2017-12-28T21:26:03.884Z,22.45
2017-12-28T21:28:41.511Z,21.50
2017-12-28T21:31:16.400Z,21.92
2017-12-28T21:33:57.215Z,21.70
2017-12-28T21:36:39.646Z,21.20
2017-12-28T21:39:22.712Z,21.05
2017-12-28T21:41:58.002Z,21.17
2017-12-28T21:44:34.487Z,20.10
2017-12-28T21:47:10.516Z,19.65
2017-12-28T21:49:45.697Z,20.37
2017-12-28T21:52:20.479Z,20.50
2017-12-28T21:54:55.545Z,23.52
2017-12-28T21:57:30.551Z,23.23
2017-12-28T22:00:06.205Z,23.73
2017-12-28T22:02:48.401Z,22.23
2017-12-28T22:05:24.534Z,23.48
2017-12-28T22:07:58.968Z,27.80
2017-12-28T22:10:32.307Z,28.52
2017-12-28T22:18:41.124Z,30.05
2017-12-28T22:21:17.462Z,27.98
2017-12-28T22:23:54.548Z,31.75
2017-12-28T22:26:29.365Z,34.97
2017-12-28T22:29:06.385Z,30.30
2017-12-28T22:31:45.206Z,30.62
2017-12-28T22:34:20.170Z,36.47
2017-12-28T22:36:54.574Z,34.33
2017-12-28T22:42:08.925Z,32.92
2017-12-28T22:44:45.617Z,32.75
2017-12-28T22:47:23.301Z,32.97
2017-12-28T22:49:58.971Z,33.30
2017-12-28T22:52:33.464Z,33.83
2017-12-28T22:55:11.308Z,36.05
2017-12-28T22:57:44.518Z,33.50
2017-12-28T23:00:30.117Z,32.45
2017-12-28T23:03:06.088Z,32.30
2017-12-28T23:05:44.925Z,35.03
2017-12-28T23:11:04.006Z,33.03
2017-12-28T23:16:18.793Z,30.65
2017-12-28T23:18:53.122Z,36.30
2017-12-28T23:21:29.813Z,35.58
2017-12-28T23:24:05.242Z,37.03
2017-12-28T23:26:42.988Z,30.73
2017-12-28T23:29:17.234Z,32.20
2017-12-28T23:31:52.082Z,33.88
2017-12-28T23:34:32.869Z,32.08
2017-12-28T23:37:08.957Z,36.72
2017-12-28T23:39:46.289Z,35.50
2017-12-28T23:42:22.541Z,37.83
2017-12-28T23:44:59.076Z,37.88
2017-12-28T23:47:35.236Z,41.50
2017-12-28T23:50:09.260Z,42.17
